»·PEaware :: SOA449 KSEA-KOAK

SOA449 :: KSEA-KOAK

FLIGHT INFORMATION

Flight Status: Arrived
Operator:
Southern Airways
More flights by this operator :: More flights under this callsign
Pilot: David Y. (25336)
Aircraft: BOEING 737-800
(B738)
More flights by this aircraft type
Origin: KSEA Seattle-Tacoma Intl
United States
Destination: KOAK Metro Oakland Intl
United States
More flights between these airports :: More routes between these airports
Route: HAROB6 HISKU Q5 HUPTU SPAMY WNDSR2
File this flight plan on PilotEdge
Remarks:
Altitude:
(Current/Filed)
35,000ft
Speed:
(Current/Filed)
465kts
Departed: 04-Aug-19 08:17 AM
Arrived: 04-Aug-19 10:10 AM
Distance/Time
Traveled:
584nm/1:53
Distance/Time
To Go:
Arrived

Flight Plot

Page will automatically refresh every two minutes.

Flight plan parsing failed; only flown route is shown


Map Options




Map Legend


Flown Route
Filed Route
Departure Airport
Arrival Airport
Navaid (VOR, NDB)
Fix

Horizontal Profiles

Position Reports

Time Latitude Longitude Heading Altitude Ground
Speed
04-Aug-19 07:43 47.445511 -122.304681 92 358ft 0kts
04-Aug-19 07:44 47.445511 -122.304681 92 358ft 0kts
04-Aug-19 07:45 47.445511 -122.304681 92 358ft 0kts
04-Aug-19 07:46 47.445511 -122.304681 92 358ft 0kts
04-Aug-19 07:47 47.445511 -122.304681 92 358ft 0kts
04-Aug-19 07:48 47.445511 -122.304681 92 358ft 0kts
04-Aug-19 07:49 47.445511 -122.304681 92 358ft 0kts
04-Aug-19 07:50 47.445511 -122.304681 92 358ft 0kts
04-Aug-19 07:51 47.445511 -122.304681 92 358ft 0kts
04-Aug-19 07:52 47.445511 -122.304681 92 358ft 0kts
04-Aug-19 07:53 47.445511 -122.304681 92 358ft 0kts
04-Aug-19 07:54 47.445511 -122.304681 92 358ft 0kts
04-Aug-19 07:55 47.445511 -122.304681 92 358ft 0kts
04-Aug-19 07:56 47.445511 -122.304681 92 358ft 0kts
04-Aug-19 07:57 47.445511 -122.304681 92 358ft 0kts
04-Aug-19 07:58 47.445511 -122.304681 92 358ft 0kts
04-Aug-19 07:59 47.445511 -122.304681 92 358ft 0kts
04-Aug-19 08:00 47.445511 -122.304681 92 358ft 0kts
04-Aug-19 08:01 47.445511 -122.304681 92 358ft 0kts
04-Aug-19 08:02 47.445511 -122.304681 92 358ft 0kts
04-Aug-19 08:03 47.445511 -122.304681 92 358ft 0kts
04-Aug-19 08:04 47.445514 -122.304874 95 358ft 2kts
04-Aug-19 08:05 47.445920 -122.305428 177 358ft 1kts
04-Aug-19 08:06 47.446000 -122.305425 181 358ft 0kts
04-Aug-19 08:07 47.446000 -122.305425 181 358ft 0kts
04-Aug-19 08:08 47.446000 -122.305425 181 358ft 0kts
04-Aug-19 08:09 47.445631 -122.305440 181 358ft 14kts
04-Aug-19 08:10 47.440747 -122.306354 181 358ft 22kts
04-Aug-19 08:11 47.434305 -122.305575 179 358ft 21kts
04-Aug-19 08:12 47.431545 -122.307161 256 358ft 2kts
04-Aug-19 08:13 47.431519 -122.308073 284 358ft 0kts
04-Aug-19 08:14 47.431519 -122.308074 283 358ft 0kts
04-Aug-19 08:15 47.431526 -122.308034 349 358ft 0kts
04-Aug-19 08:16 47.442729 -122.307953 0 358ft 137kts
04-Aug-19 08:17 47.485167 -122.307175 1 1802ft 180kts
04-Aug-19 08:18 47.534247 -122.309055 354 2775ft 238kts
04-Aug-19 08:19 47.593894 -122.351267 313 4786ft 275kts
04-Aug-19 08:20 47.612507 -122.464285 250 7460ft 284kts
04-Aug-19 08:21 47.562634 -122.556747 224 9976ft 287kts
04-Aug-19 08:22 47.503507 -122.647009 226 11469ft 327kts
04-Aug-19 08:23 47.450381 -122.728046 225 13564ft 334kts
04-Aug-19 08:24 47.387625 -122.823433 225 16165ft 340kts
04-Aug-19 08:25 47.323611 -122.920398 226 18528ft 349kts
04-Aug-19 08:26 47.256241 -123.022041 225 20699ft 360kts
04-Aug-19 08:27 47.181951 -123.108553 217 22588ft 369kts
04-Aug-19 08:28 47.098720 -123.189232 203 24326ft 381kts
04-Aug-19 08:29 46.994556 -123.209417 179 26021ft 395kts
04-Aug-19 08:30 46.891580 -123.197949 178 27515ft 402kts
04-Aug-19 08:31 46.774653 -123.185002 179 29087ft 409kts
04-Aug-19 08:32 46.662030 -123.172603 179 30425ft 416kts
04-Aug-19 08:33 46.560222 -123.161411 179 31826ft 414kts
04-Aug-19 08:34 46.453168 -123.149715 179 33277ft 409kts
04-Aug-19 08:35 46.350003 -123.138468 179 34515ft 406kts
04-Aug-19 08:36 46.233876 -123.125911 179 35109ft 419kts
04-Aug-19 08:37 46.133686 -123.115058 179 35100ft 417kts
04-Aug-19 08:38 46.029284 -123.103829 179 35095ft 418kts
04-Aug-19 08:39 45.919299 -123.092050 179 35094ft 416kts
04-Aug-19 08:40 45.810425 -123.080422 179 35101ft 417kts
04-Aug-19 08:41 45.702914 -123.069000 179 35099ft 416kts
04-Aug-19 08:42 45.589741 -123.057011 179 35099ft 415kts
04-Aug-19 08:43 45.478008 -123.045221 179 35097ft 415kts
04-Aug-19 08:44 45.371773 -123.034060 179 35096ft 415kts
04-Aug-19 08:45 45.264612 -123.022847 179 35094ft 415kts
04-Aug-19 08:46 45.147435 -123.010631 179 35093ft 416kts
04-Aug-19 08:47 45.035591 -122.999016 179 35086ft 416kts
04-Aug-19 08:48 44.924714 -122.987548 179 35076ft 415kts
04-Aug-19 08:49 44.813627 -122.976106 178 35083ft 416kts
04-Aug-19 08:50 44.706998 -122.965160 178 35081ft 416kts
04-Aug-19 08:51 44.593682 -122.953575 178 35079ft 416kts
04-Aug-19 08:52 44.479980 -122.942992 181 35080ft 414kts
04-Aug-19 08:53 44.373612 -122.940326 181 35084ft 414kts
04-Aug-19 08:54 44.263441 -122.936915 181 35089ft 415kts
04-Aug-19 08:55 44.154760 -122.933585 181 35088ft 415kts
04-Aug-19 08:56 44.035926 -122.929967 181 35087ft 415kts
04-Aug-19 08:57 43.937375 -122.926965 181 35086ft 413kts
04-Aug-19 08:58 43.823277 -122.923505 181 35094ft 414kts
04-Aug-19 08:59 43.716971 -122.920291 181 35091ft 414kts
04-Aug-19 09:00 43.599988 -122.916770 181 35089ft 414kts
04-Aug-19 09:01 43.489746 -122.913467 181 35089ft 413kts
04-Aug-19 09:02 43.375885 -122.910065 181 35088ft 413kts
04-Aug-19 09:03 43.262485 -122.906694 181 35087ft 413kts
04-Aug-19 09:04 43.149143 -122.903342 181 35086ft 423kts
04-Aug-19 09:05 43.034118 -122.899936 181 35089ft 422kts
04-Aug-19 09:06 42.921855 -122.896635 181 35088ft 421kts
04-Aug-19 09:08 42.805949 -122.893248 181 35096ft 422kts
04-Aug-19 09:09 42.692901 -122.889938 181 35092ft 421kts
04-Aug-19 09:10 42.578404 -122.886604 181 35071ft 421kts
04-Aug-19 09:11 42.462449 -122.883258 181 35064ft 421kts
04-Aug-19 09:12 42.345520 -122.879922 181 35063ft 421kts
04-Aug-19 09:13 42.229441 -122.876600 180 35061ft 421kts
04-Aug-19 09:14 42.113970 -122.873306 180 35060ft 421kts
04-Aug-19 09:15 41.998566 -122.870025 180 35082ft 421kts
04-Aug-19 09:16 41.884642 -122.866797 180 35111ft 421kts
04-Aug-19 09:17 41.771643 -122.863607 180 35112ft 421kts
04-Aug-19 09:18 41.659848 -122.860471 180 35111ft 420kts
04-Aug-19 09:19 41.563374 -122.857760 180 35110ft 420kts
04-Aug-19 09:20 41.455475 -122.854745 180 35109ft 420kts
04-Aug-19 09:21 41.339749 -122.851519 180 35108ft 420kts
04-Aug-19 09:22 41.224751 -122.844773 179 35107ft 421kts
04-Aug-19 09:23 41.106052 -122.837681 179 35106ft 420kts
04-Aug-19 09:24 40.991690 -122.830866 179 35105ft 420kts
04-Aug-19 09:25 40.881303 -122.824317 179 35112ft 420kts
04-Aug-19 09:25 40.785273 -122.818635 179 35111ft 420kts
04-Aug-19 09:27 40.653462 -122.810864 179 35029ft 420kts
04-Aug-19 09:28 40.543971 -122.804438 179 35009ft 420kts
04-Aug-19 09:28 40.445083 -122.798655 179 35008ft 419kts
04-Aug-19 09:29 40.340653 -122.792541 179 35008ft 419kts
04-Aug-19 09:31 40.205564 -122.784681 179 35006ft 419kts
04-Aug-19 09:31 40.116820 -122.779544 179 35005ft 419kts
04-Aug-19 09:32 40.003893 -122.773007 179 35004ft 419kts
04-Aug-19 09:33 39.893942 -122.766672 178 35005ft 418kts
04-Aug-19 09:34 39.779006 -122.760072 179 35013ft 412kts
04-Aug-19 09:35 39.675379 -122.754147 179 35011ft 414kts
04-Aug-19 09:36 39.562249 -122.747703 178 33144ft 423kts
04-Aug-19 09:37 39.448863 -122.717896 161 29962ft 431kts
04-Aug-19 09:38 39.346677 -122.665563 160 28093ft 404kts
04-Aug-19 09:39 39.243426 -122.612838 160 25436ft 394kts
04-Aug-19 09:40 39.142530 -122.582655 175 24019ft 377kts
04-Aug-19 09:41 39.041452 -122.568415 173 23390ft 368kts
04-Aug-19 09:42 38.946722 -122.544931 170 22755ft 364kts
04-Aug-19 09:43 38.851867 -122.521228 170 20232ft 370kts
04-Aug-19 09:44 38.759094 -122.498019 170 17945ft 349kts
04-Aug-19 09:45 38.668990 -122.476647 173 15979ft 334kts
04-Aug-19 09:46 38.577826 -122.462943 174 15556ft 320kts
04-Aug-19 09:47 38.493286 -122.450056 173 13353ft 326kts
04-Aug-19 09:48 38.404113 -122.436491 173 11178ft 324kts
04-Aug-19 09:49 38.322377 -122.424093 173 10312ft 288kts
04-Aug-19 09:50 38.246311 -122.412586 173 9113ft 274kts
04-Aug-19 09:51 38.171460 -122.401123 173 9054ft 270kts
04-Aug-19 09:52 38.098499 -122.389940 173 8518ft 261kts
04-Aug-19 09:53 38.031227 -122.378117 164 7220ft 266kts
04-Aug-19 09:54 37.969645 -122.329947 144 7054ft 266kts
04-Aug-19 09:55 37.911058 -122.273924 144 7054ft 266kts
04-Aug-19 09:56 37.853701 -122.219304 144 6642ft 257kts
04-Aug-19 09:57 37.800371 -122.168612 144 5414ft 256kts
04-Aug-19 09:58 37.755112 -122.105780 129 5054ft 231kts
04-Aug-19 09:59 37.716597 -122.043164 127 5027ft 232kts
04-Aug-19 10:00 37.683283 -121.981931 125 5020ft 190kts
04-Aug-19 10:01 37.641973 -121.956213 210 4677ft 191kts
04-Aug-19 10:02 37.597824 -121.990978 213 3675ft 186kts
04-Aug-19 10:03 37.592404 -122.046423 299 3125ft 183kts
04-Aug-19 10:04 37.621801 -122.094552 310 2443ft 155kts
04-Aug-19 10:05 37.650825 -122.132383 317 1665ft 157kts
04-Aug-19 10:06 37.676412 -122.176227 307 853ft 159kts
04-Aug-19 10:07 37.703956 -122.217760 309 27ft 147kts
04-Aug-19 10:08 37.717163 -122.237762 309 14ft 49kts
04-Aug-19 10:09 37.719769 -122.240218 18 14ft 0kts
04-Aug-19 10:10 37.719769 -122.240218 18 14ft 0kts

Navigation Log

Ident Type
Flight plan parsing failed, navigation log unavailable